Time;durP1;ratioP1;P1;durP2;ratioP2;P2;SDS_P1;SDS_P2;PMS_P1;PMS_P2;Temp;Humidity;BMP_temperature;BMP_pressure;BME280_temperature;BME280_humidity;BME280_pressure;Samples;Min_cycle;Max_cycle;Signal;HPM_P1;HPM_P2
2021/03/03 00:02:02;;;;;;;155.75;78.80;;;;;;;;;;5133822;28;20099;-72
2021/03/03 00:04:29;;;;;;;159.02;77.97;;;;;;;;;;5115943;28;20621;-71
2021/03/03 00:06:55;;;;;;;150.60;78.85;;;;;;;;;;5134088;28;20019;-71
2021/03/03 00:09:21;;;;;;;151.73;77.93;;;;;;;;;;5116633;27;20406;-71
2021/03/03 00:11:47;;;;;;;167.20;81.05;;;;;;;;;;5137599;27;20023;-70
2021/03/03 00:14:13;;;;;;;157.05;83.72;;;;;;;;;;5119508;27;20479;-69
2021/03/03 00:16:39;;;;;;;160.73;84.30;;;;;;;;;;5137871;27;20092;-69
2021/03/03 00:19:05;;;;;;;158.60;79.20;;;;;;;;;;5105883;28;20077;-70
2021/03/03 00:21:32;;;;;;;143.77;75.25;;;;;;;;;;5117176;28;20091;-70
2021/03/03 00:23:58;;;;;;;140.98;73.22;;;;;;;;;;5117642;28;20100;-70
2021/03/03 00:26:27;;;;;;;133.13;69.10;;;;;;;;;;5117134;28;20054;-70
2021/03/03 00:28:53;;;;;;;132.23;67.63;;;;;;;;;;5117190;28;20008;-70
2021/03/03 00:31:20;;;;;;;134.05;69.57;;;;;;;;;;5113800;27;20019;-71
2021/03/03 00:33:46;;;;;;;129.13;68.80;;;;;;;;;;5138355;27;20090;-69
2021/03/03 00:36:12;;;;;;;126.68;66.13;;;;;;;;;;5137771;27;20019;-70
2021/03/03 00:38:38;;;;;;;132.63;71.32;;;;;;;;;;5112964;28;20019;-70
2021/03/03 00:41:04;;;;;;;137.55;72.28;;;;;;;;;;5098615;28;20092;-69
2021/03/03 00:43:30;;;;;;;140.20;68.95;;;;;;;;;;5116770;28;20098;-71
2021/03/03 00:45:57;;;;;;;139.98;73.85;;;;;;;;;;5098944;28;20486;-73
2021/03/03 00:48:23;;;;;;;135.85;71.00;;;;;;;;;;5101111;28;20059;-75
2021/03/03 00:50:49;;;;;;;148.77;76.95;;;;;;;;;;5116642;28;20054;-71
2021/03/03 00:53:15;;;;;;;142.45;71.40;;;;;;;;;;5117122;28;20023;-72
2021/03/03 00:55:41;;;;;;;147.95;72.10;;;;;;;;;;5098456;28;20028;-71
2021/03/03 00:58:07;;;;;;;162.95;83.55;;;;;;;;;;5116447;28;20073;-72
2021/03/03 01:00:35;;;;;;;158.65;77.10;;;;;;;;;;5099682;27;20163;-72
2021/03/03 01:03:01;;;;;;;160.25;81.63;;;;;;;;;;5098264;28;20027;-72
2021/03/03 01:05:27;;;;;;;167.65;86.03;;;;;;;;;;5098281;28;20028;-72
2021/03/03 01:07:53;;;;;;;164.38;81.72;;;;;;;;;;5116269;28;20024;-71
2021/03/03 01:10:19;;;;;;;164.75;81.90;;;;;;;;;;5124696;27;20360;-71
2021/03/03 01:12:45;;;;;;;161.68;82.10;;;;;;;;;;5117953;27;20364;-71
2021/03/03 01:15:12;;;;;;;165.43;84.75;;;;;;;;;;5122970;27;20024;-71
2021/03/03 01:17:38;;;;;;;159.10;80.18;;;;;;;;;;5116055;28;20102;-70
2021/03/03 01:20:05;;;;;;;168.27;81.85;;;;;;;;;;5098056;28;20027;-71
2021/03/03 01:22:31;;;;;;;159.27;82.18;;;;;;;;;;5097159;28;20073;-71
2021/03/03 01:24:57;;;;;;;167.93;86.50;;;;;;;;;;5107948;27;20062;-69
2021/03/03 01:27:23;;;;;;;160.73;82.63;;;;;;;;;;5136743;27;20055;-69
2021/03/03 01:29:49;;;;;;;181.52;85.28;;;;;;;;;;5136415;27;20020;-70
2021/03/03 01:32:15;;;;;;;175.32;89.20;;;;;;;;;;5136375;27;20023;-68
2021/03/03 01:34:41;;;;;;;157.65;80.25;;;;;;;;;;5132574;27;20406;-68
2021/03/03 01:37:08;;;;;;;174.38;83.72;;;;;;;;;;5136800;27;20115;-69
2021/03/03 01:39:34;;;;;;;167.70;81.97;;;;;;;;;;5136453;27;20076;-68
2021/03/03 01:42:00;;;;;;;158.70;80.97;;;;;;;;;;5136016;27;20035;-70
2021/03/03 01:44:26;;;;;;;166.98;85.38;;;;;;;;;;5117956;27;20023;-70
2021/03/03 01:46:52;;;;;;;194.23;96.07;;;;;;;;;;5136146;27;20177;-70
2021/03/03 01:49:18;;;;;;;209.23;107.90;;;;;;;;;;5099859;28;20054;-72
2021/03/03 01:51:44;;;;;;;209.30;108.68;;;;;;;;;;5115730;28;20068;-71
2021/03/03 01:54:10;;;;;;;205.98;111.53;;;;;;;;;;5097433;28;20024;-72
2021/03/03 01:56:37;;;;;;;200.98;105.85;;;;;;;;;;5115586;28;20026;-71
2021/03/03 01:59:03;;;;;;;199.40;101.82;;;;;;;;;;5096970;28;20034;-73
2021/03/03 02:01:29;;;;;;;205.50;106.03;;;;;;;;;;5130143;27;20028;-73
2021/03/03 02:03:55;;;;;;;195.50;98.95;;;;;;;;;;5136131;27;20029;-71
2021/03/03 02:06:33;;;;;;;178.00;94.35;;;;;;;;;;5104149;28;20402;-73
2021/03/03 02:09:07;;;;;;;181.50;91.78;;;;;;;;;;5097171;28;20363;-72
2021/03/03 02:12:02;;;;;;;179.77;91.05;;;;;;;;;;5097098;28;20028;-70
2021/03/03 02:14:29;;;;;;;187.00;92.53;;;;;;;;;;5098422;27;20043;-70
2021/03/03 02:16:56;;;;;;;188.13;95.78;;;;;;;;;;5097010;28;20020;-71
2021/03/03 02:19:23;;;;;;;181.73;94.18;;;;;;;;;;5096962;28;20476;-71
2021/03/03 02:21:54;;;;;;;205.00;101.40;;;;;;;;;;5096615;28;20030;-72
2021/03/03 02:24:23;;;;;;;203.10;106.13;;;;;;;;;;5097043;28;20394;-70
2021/03/03 02:26:51;;;;;;;207.73;108.40;;;;;;;;;;5096634;28;20027;-70
2021/03/03 02:29:34;;;;;;;210.90;101.63;;;;;;;;;;5096786;28;20061;-72
2021/03/03 02:32:01;;;;;;;199.60;99.53;;;;;;;;;;5097288;28;20020;-73
2021/03/03 02:34:28;;;;;;;187.77;98.90;;;;;;;;;;5114866;28;20027;-72
2021/03/03 02:36:54;;;;;;;194.68;99.18;;;;;;;;;;5114892;28;20090;-71
2021/03/03 02:39:33;;;;;;;190.20;97.10;;;;;;;;;;5104562;27;20015;-71
2021/03/03 02:41:59;;;;;;;173.15;90.68;;;;;;;;;;5134981;27;20110;-70
2021/03/03 02:44:27;;;;;;;171.60;88.38;;;;;;;;;;5135230;27;20408;-70
2021/03/03 02:46:53;;;;;;;;;;;;;;;;;;5135715;27;20401;-71
2021/03/03 02:49:21;;;;;;;203.38;97.25;;;;;;;;;;5112967;28;19904;-70
2021/03/03 02:51:47;;;;;;;195.82;99.03;;;;;;;;;;5096455;28;20051;-70
2021/03/03 02:54:14;;;;;;;157.15;82.63;;;;;;;;;;5114823;28;20026;-71
2021/03/03 02:56:40;;;;;;;151.82;76.85;;;;;;;;;;5095988;28;20051;-71
2021/03/03 02:59:09;;;;;;;147.00;73.68;;;;;;;;;;5096237;28;20027;-71
2021/03/03 03:01:39;;;;;;;148.57;76.65;;;;;;;;;;5114419;28;20016;-70
2021/03/03 03:04:06;;;;;;;140.50;71.93;;;;;;;;;;5115197;28;20409;-71
2021/03/03 03:06:33;;;;;;;129.18;69.35;;;;;;;;;;5113086;28;20046;-70
2021/03/03 03:09:08;;;;;;;121.00;63.25;;;;;;;;;;5116196;27;20031;-71
2021/03/03 03:11:36;;;;;;;130.73;63.65;;;;;;;;;;5134982;27;20022;-71
2021/03/03 03:14:05;;;;;;;129.10;68.13;;;;;;;;;;5135181;27;20023;-69
2021/03/03 03:16:32;;;;;;;127.88;65.93;;;;;;;;;;5120684;27;20481;-71
2021/03/03 03:18:59;;;;;;;127.55;61.92;;;;;;;;;;5114163;28;20020;-71
2021/03/03 03:21:27;;;;;;;124.03;63.85;;;;;;;;;;5114273;28;20019;-70
2021/03/03 03:23:53;;;;;;;128.90;65.32;;;;;;;;;;5113882;28;20019;-71
2021/03/03 03:26:20;;;;;;;139.02;66.90;;;;;;;;;;5095972;28;20019;-71
2021/03/03 03:28:47;;;;;;;135.38;62.92;;;;;;;;;;5115386;28;20094;-69
2021/03/03 03:31:13;;;;;;;134.85;63.78;;;;;;;;;;5118969;28;20033;-70
2021/03/03 03:33:39;;;;;;;135.82;62.60;;;;;;;;;;5095859;28;20038;-70
2021/03/03 03:36:06;;;;;;;140.40;65.10;;;;;;;;;;5095834;28;20015;-69
2021/03/03 03:38:33;;;;;;;149.43;69.00;;;;;;;;;;5113851;28;20016;-72
2021/03/03 03:41:00;;;;;;;139.40;64.25;;;;;;;;;;5104012;28;20364;-70
2021/03/03 03:43:26;;;;;;;;;;;;;;;;;;5135021;28;20015;-70
2021/03/03 03:45:53;;;;;;;136.30;58.72;;;;;;;;;;5137061;27;20378;-71
2021/03/03 03:48:19;;;;;;;133.07;66.00;;;;;;;;;;5120296;27;20026;-71
2021/03/03 03:50:46;;;;;;;144.65;64.20;;;;;;;;;;5138365;27;20235;-70
2021/03/03 03:53:12;;;;;;;135.00;62.90;;;;;;;;;;5128477;27;20027;-70
2021/03/03 03:55:39;;;;;;;135.52;66.78;;;;;;;;;;5118301;28;20024;-69
2021/03/03 03:58:06;;;;;;;131.20;62.80;;;;;;;;;;5117955;28;20360;-70
2021/03/03 04:00:32;;;;;;;128.60;64.47;;;;;;;;;;5118235;28;20073;-71
2021/03/03 04:02:59;;;;;;;138.52;65.35;;;;;;;;;;5099639;28;20026;-70
2021/03/03 04:05:26;;;;;;;146.45;66.28;;;;;;;;;;5117645;28;20020;-71
2021/03/03 04:07:52;;;;;;;130.67;64.43;;;;;;;;;;5103235;27;20487;-70
2021/03/03 04:10:22;;;;;;;124.38;58.53;;;;;;;;;;5138268;27;20020;-70
2021/03/03 04:12:48;;;;;;;137.05;64.05;;;;;;;;;;5137936;27;20020;-69
2021/03/03 04:15:15;;;;;;;119.60;58.25;;;;;;;;;;5138195;27;20090;-71
2021/03/03 04:17:41;;;;;;;126.25;61.08;;;;;;;;;;5137881;27;20050;-70
2021/03/03 04:20:09;;;;;;;123.23;60.53;;;;;;;;;;5137876;27;20011;-70
2021/03/03 04:22:35;;;;;;;128.55;62.40;;;;;;;;;;5118132;27;20023;-69
2021/03/03 04:25:02;;;;;;;120.75;58.10;;;;;;;;;;5133840;27;20458;-71
2021/03/03 04:27:28;;;;;;;116.20;57.60;;;;;;;;;;5117215;28;20024;-69
2021/03/03 04:29:54;;;;;;;123.30;57.05;;;;;;;;;;5099041;28;20476;-69
2021/03/03 04:32:20;;;;;;;128.30;58.97;;;;;;;;;;5117603;28;20026;-70
2021/03/03 04:34:46;;;;;;;118.78;58.88;;;;;;;;;;5098662;28;20015;-69
2021/03/03 04:37:12;;;;;;;112.82;55.13;;;;;;;;;;5118118;27;20464;-70
2021/03/03 04:39:38;;;;;;;116.63;54.40;;;;;;;;;;5098922;28;20023;-69
2021/03/03 04:42:04;;;;;;;109.15;54.33;;;;;;;;;;5116575;28;20104;-69
2021/03/03 04:44:31;;;;;;;114.70;57.70;;;;;;;;;;5116971;28;20525;-70
2021/03/03 04:46:57;;;;;;;109.85;56.45;;;;;;;;;;5098417;28;20464;-71
2021/03/03 04:49:23;;;;;;;119.60;55.40;;;;;;;;;;5098366;28;20031;-71
2021/03/03 04:51:49;;;;;;;116.85;56.55;;;;;;;;;;5098682;28;20364;-72
2021/03/03 04:54:15;;;;;;;122.22;58.42;;;;;;;;;;5098021;28;20144;-73
2021/03/03 04:56:41;;;;;;;120.88;60.80;;;;;;;;;;5122456;27;20398;-71
2021/03/03 04:59:07;;;;;;;130.38;61.20;;;;;;;;;;5137315;27;20015;-72
2021/03/03 05:01:34;;;;;;;137.75;62.55;;;;;;;;;;5136684;27;20340;-72
2021/03/03 05:04:00;;;;;;;137.45;66.40;;;;;;;;;;5137235;27;20022;-70
2021/03/03 05:06:26;;;;;;;130.88;63.45;;;;;;;;;;5114735;28;20032;-71
2021/03/03 05:08:53;;;;;;;125.30;61.55;;;;;;;;;;5116274;27;20027;-71
2021/03/03 05:11:19;;;;;;;129.07;62.75;;;;;;;;;;5106928;27;20030;-74
2021/03/03 05:13:45;;;;;;;122.32;59.45;;;;;;;;;;5118616;27;20034;-73
2021/03/03 05:16:11;;;;;;;133.35;61.78;;;;;;;;;;5118280;27;20019;-73
2021/03/03 05:18:37;;;;;;;139.30;63.25;;;;;;;;;;5116476;27;20053;-72
2021/03/03 05:21:04;;;;;;;145.10;66.45;;;;;;;;;;5098996;28;20016;-72
2021/03/03 05:23:34;;;;;;;130.88;64.05;;;;;;;;;;5097791;28;20022;-71
2021/03/03 05:26:01;;;;;;;149.25;67.82;;;;;;;;;;5097934;28;20026;-71
2021/03/03 05:28:28;;;;;;;153.13;75.03;;;;;;;;;;5116541;28;20030;-71
2021/03/03 05:30:54;;;;;;;155.38;73.25;;;;;;;;;;5131350;27;20486;-70
2021/03/03 05:33:27;;;;;;;162.48;79.32;;;;;;;;;;5118250;27;20089;-69
2021/03/03 05:35:53;;;;;;;156.23;77.93;;;;;;;;;;5118103;27;20027;-69
2021/03/03 05:38:20;;;;;;;160.82;81.38;;;;;;;;;;5136783;27;20045;-71
2021/03/03 05:40:46;;;;;;;158.82;77.75;;;;;;;;;;5117875;27;20035;-72
2021/03/03 05:43:13;;;;;;;171.45;84.00;;;;;;;;;;5121442;27;20035;-70
2021/03/03 05:45:41;;;;;;;174.63;89.40;;;;;;;;;;5098120;28;20034;-70
2021/03/03 05:48:11;;;;;;;179.82;86.10;;;;;;;;;;5098195;28;20019;-70
2021/03/03 05:50:37;;;;;;;186.00;91.88;;;;;;;;;;5115958;28;20077;-69
2021/03/03 05:53:03;;;;;;;224.82;100.93;;;;;;;;;;5115441;28;20402;-70
2021/03/03 05:55:30;;;;;;;244.98;114.00;;;;;;;;;;5126218;27;20384;-69
2021/03/03 05:57:56;;;;;;;307.25;122.22;;;;;;;;;;5117448;27;20016;-70
2021/03/03 06:00:22;;;;;;;309.77;128.45;;;;;;;;;;5117789;27;20019;-71
2021/03/03 06:02:49;;;;;;;312.13;127.17;;;;;;;;;;5136456;27;20023;-69
2021/03/03 06:05:15;;;;;;;281.45;117.50;;;;;;;;;;5127217;27;20279;-70
2021/03/03 06:07:42;;;;;;;255.25;116.00;;;;;;;;;;5114740;28;20012;-69
2021/03/03 06:10:08;;;;;;;235.13;106.60;;;;;;;;;;5115708;27;20024;-70
2021/03/03 06:12:34;;;;;;;223.63;107.57;;;;;;;;;;5116180;27;20250;-70
2021/03/03 06:15:01;;;;;;;209.40;98.93;;;;;;;;;;5115586;28;20351;-70
2021/03/03 06:17:29;;;;;;;197.05;93.00;;;;;;;;;;5096982;28;20058;-70
2021/03/03 06:19:55;;;;;;;;;;;;;;;;;;5097122;28;20019;-71
2021/03/03 06:22:22;;;;;;;172.50;82.90;;;;;;;;;;5126226;27;19986;-72
2021/03/03 06:24:48;;;;;;;182.00;92.22;;;;;;;;;;5116839;27;20470;-72
2021/03/03 06:27:14;;;;;;;187.68;98.60;;;;;;;;;;5135908;27;20015;-72
2021/03/03 06:29:40;;;;;;;200.30;110.43;;;;;;;;;;5117198;27;20460;-72
2021/03/03 06:32:06;;;;;;;214.75;110.90;;;;;;;;;;5131398;27;20026;-70
2021/03/03 06:34:32;;;;;;;199.02;109.35;;;;;;;;;;5096722;28;20454;-70
2021/03/03 06:36:58;;;;;;;177.75;95.97;;;;;;;;;;5114905;28;20095;-70
2021/03/03 06:39:29;;;;;;;171.65;93.38;;;;;;;;;;5114552;28;20020;-70
2021/03/03 06:41:56;;;;;;;143.85;78.07;;;;;;;;;;5114496;28;20039;-68
2021/03/03 06:44:22;;;;;;;;;;;;;;;;;;5115061;27;20065;-70
2021/03/03 06:47:07;;;;;;;157.60;83.40;;;;;;;;;;5134678;27;19917;-68
2021/03/03 06:49:34;;;;;;;147.90;75.05;;;;;;;;;;5116939;27;20112;-68
2021/03/03 06:52:00;;;;;;;121.13;66.70;;;;;;;;;;5117641;27;20047;-69
2021/03/03 06:54:27;;;;;;;107.40;60.78;;;;;;;;;;5134849;27;20029;-67
2021/03/03 06:56:54;;;;;;;103.38;52.47;;;;;;;;;;5135450;27;20054;-67
2021/03/03 06:59:20;;;;;;;;;;;;;;;;;;5120035;27;20043;-66
2021/03/03 07:01:48;;;;;;;104.78;50.53;;;;;;;;;;5114249;28;19942;-68
2021/03/03 07:04:27;;;;;;;100.15;52.28;;;;;;;;;;5114678;28;20028;-67
2021/03/03 07:06:55;;;;;;;107.10;58.88;;;;;;;;;;5096242;28;20115;-67
2021/03/03 07:09:22;;;;;;;114.53;60.70;;;;;;;;;;5121728;27;20023;-68
2021/03/03 07:11:48;;;;;;;116.57;62.85;;;;;;;;;;5134358;27;20019;-68
2021/03/03 07:14:16;;;;;;;121.03;62.95;;;;;;;;;;5134614;27;20456;-68
2021/03/03 07:17:00;;;;;;;103.50;55.08;;;;;;;;;;5134904;27;20467;-68
2021/03/03 07:19:26;;;;;;;112.60;56.45;;;;;;;;;;5116461;28;20023;-70
2021/03/03 07:21:52;;;;;;;104.47;49.70;;;;;;;;;;5114383;28;20057;-71
2021/03/03 07:24:19;;;;;;;72.07;37.53;;;;;;;;;;5098750;28;20111;-71
2021/03/03 07:26:46;;;;;;;69.95;37.17;;;;;;;;;;5114334;28;20011;-69
2021/03/03 07:29:12;;;;;;;76.00;39.15;;;;;;;;;;5113918;28;20055;-71
2021/03/03 07:31:39;;;;;;;74.75;35.88;;;;;;;;;;5113644;28;20027;-68
2021/03/03 07:34:08;;;;;;;56.10;30.00;;;;;;;;;;5134408;28;20075;-68
2021/03/03 07:36:35;;;;;;;57.17;31.98;;;;;;;;;;5115927;28;20114;-69
2021/03/03 07:39:05;;;;;;;74.15;38.55;;;;;;;;;;5133782;28;20051;-69
2021/03/03 07:41:34;;;;;;;70.15;36.22;;;;;;;;;;5134286;28;20035;-66
2021/03/03 07:44:02;;;;;;;50.20;26.17;;;;;;;;;;5115857;28;20030;-67
2021/03/03 07:46:29;;;;;;;42.67;22.95;;;;;;;;;;5134617;28;20071;-67
2021/03/03 07:48:56;;;;;;;39.40;21.73;;;;;;;;;;5131749;27;20018;-66
2021/03/03 07:51:22;;;;;;;42.08;21.90;;;;;;;;;;5134887;28;20444;-67
2021/03/03 07:53:48;;;;;;;34.97;19.88;;;;;;;;;;5133383;28;20019;-67
2021/03/03 07:56:15;;;;;;;41.47;21.42;;;;;;;;;;5127400;28;20026;-68
2021/03/03 07:58:45;;;;;;;38.88;19.83;;;;;;;;;;5112508;28;20007;-70
2021/03/03 08:01:14;;;;;;;35.08;17.92;;;;;;;;;;5134311;28;20019;-72
2021/03/03 08:03:44;;;;;;;35.97;16.80;;;;;;;;;;5115654;28;20451;-69
2021/03/03 08:06:31;;;;;;;28.45;15.85;;;;;;;;;;5134227;28;20038;-68
2021/03/03 08:09:07;;;;;;;32.25;17.85;;;;;;;;;;5134479;28;20012;-71
2021/03/03 08:11:38;;;;;;;28.13;16.73;;;;;;;;;;5133899;28;20452;-71
2021/03/03 08:14:24;;;;;;;27.50;15.00;;;;;;;;;;5108914;28;20019;-70
2021/03/03 08:16:53;;;;;;;28.63;15.65;;;;;;;;;;5113300;28;20081;-70
2021/03/03 08:19:19;;;;;;;26.50;16.13;;;;;;;;;;5113798;28;20016;-72
2021/03/03 08:21:49;;;;;;;32.50;18.35;;;;;;;;;;5095357;28;20107;-70
2021/03/03 08:24:35;;;;;;;30.48;18.02;;;;;;;;;;5113055;28;20032;-70
2021/03/03 08:27:01;;;;;;;25.07;16.00;;;;;;;;;;5099507;28;20096;-70
2021/03/03 08:29:28;;;;;;;29.13;18.40;;;;;;;;;;5113561;28;20027;-70
2021/03/03 08:32:14;;;;;;;29.10;17.52;;;;;;;;;;5103008;27;20340;-70
2021/03/03 08:34:49;;;;;;;21.48;13.57;;;;;;;;;;5137605;27;20401;-71
2021/03/03 08:37:27;;;;;;;29.50;13.35;;;;;;;;;;5137485;27;20015;-70
2021/03/03 08:39:53;;;;;;;;;;;;;;;;;;5138185;27;20082;-70
2021/03/03 08:42:48;;;;;;;16.42;10.68;;;;;;;;;;5137162;27;19911;-70
2021/03/03 08:45:15;;;;;;;18.98;11.13;;;;;;;;;;5097226;27;20062;-70
2021/03/03 08:47:49;;;;;;;27.05;12.60;;;;;;;;;;5108803;28;20486;-70
2021/03/03 08:50:34;;;;;;;19.90;13.48;;;;;;;;;;5098312;28;20077;-71
2021/03/03 08:53:18;;;;;;;24.95;16.80;;;;;;;;;;5105593;27;20080;-70
2021/03/03 08:55:45;;;;;;;19.65;13.15;;;;;;;;;;5137011;27;20523;-70
2021/03/03 08:58:29;;;;;;;15.55;10.57;;;;;;;;;;5137203;27;20033;-67
2021/03/03 09:00:55;;;;;;;105.78;18.65;;;;;;;;;;5117241;27;20038;-70
2021/03/03 09:03:21;;;;;;;44.25;18.15;;;;;;;;;;5118486;27;20024;-70
2021/03/03 09:05:48;;;;;;;25.38;14.77;;;;;;;;;;5133500;27;20076;-69
2021/03/03 09:08:24;;;;;;;16.95;12.07;;;;;;;;;;5118198;27;20011;-70
2021/03/03 09:10:51;;;;;;;19.98;11.38;;;;;;;;;;5119212;27;20032;-70
2021/03/03 09:13:27;;;;;;;30.17;13.07;;;;;;;;;;5136432;27;20015;-70
2021/03/03 09:16:05;;;;;;;21.15;12.75;;;;;;;;;;5116819;27;20026;-70
2021/03/03 09:18:32;;;;;;;29.02;15.02;;;;;;;;;;5128160;27;20015;-69
2021/03/03 09:21:11;;;;;;;32.90;13.85;;;;;;;;;;5115937;28;20016;-70
2021/03/03 09:23:38;;;;;;;20.45;13.45;;;;;;;;;;5098089;27;20020;-69
2021/03/03 09:26:17;;;;;;;39.85;19.10;;;;;;;;;;5116159;28;20031;-67
2021/03/03 09:28:43;;;;;;;24.92;16.15;;;;;;;;;;5115897;28;20035;-68
2021/03/03 09:31:09;;;;;;;26.05;15.55;;;;;;;;;;5098271;28;20345;-67
2021/03/03 09:33:36;;;;;;;25.38;13.35;;;;;;;;;;5116178;28;20016;-67
2021/03/03 09:36:02;;;;;;;22.60;14.27;;;;;;;;;;5097377;28;20019;-68
2021/03/03 09:38:31;;;;;;;20.47;12.00;;;;;;;;;;5116241;28;20011;-68
2021/03/03 09:41:09;;;;;;;17.85;12.40;;;;;;;;;;5097482;28;20039;-68
2021/03/03 09:43:35;;;;;;;79.32;24.23;;;;;;;;;;5135694;27;20014;-68
2021/03/03 09:46:01;;;;;;;62.40;21.65;;;;;;;;;;5136277;27;20027;-68
2021/03/03 09:48:28;;;;;;;28.38;14.13;;;;;;;;;;5135959;27;20045;-69
2021/03/03 09:50:56;;;;;;;30.05;14.60;;;;;;;;;;5123456;27;20018;-68
2021/03/03 09:53:23;;;;;;;40.42;15.93;;;;;;;;;;5115794;28;20019;-68
2021/03/03 09:55:49;;;;;;;20.70;11.63;;;;;;;;;;5098258;27;20364;-67
2021/03/03 09:58:15;;;;;;;16.38;10.73;;;;;;;;;;5117490;27;20057;-68
2021/03/03 10:00:41;;;;;;;16.17;11.10;;;;;;;;;;5132654;27;20016;-68
2021/03/03 10:03:15;;;;;;;21.88;11.93;;;;;;;;;;5120480;27;20409;-69
2021/03/03 10:05:41;;;;;;;23.73;14.65;;;;;;;;;;5115264;27;20467;-69
2021/03/03 10:08:09;;;;;;;22.65;13.55;;;;;;;;;;5135612;27;20023;-68
2021/03/03 10:10:36;;;;;;;21.77;10.70;;;;;;;;;;5117143;27;20544;-66
2021/03/03 10:13:03;;;;;;;18.38;12.18;;;;;;;;;;5135010;27;20018;-69
2021/03/03 10:15:34;;;;;;;19.27;13.00;;;;;;;;;;5135882;27;20035;-71
2021/03/03 10:18:10;;;;;;;20.30;12.80;;;;;;;;;;5133686;27;20090;-71
2021/03/03 10:20:44;;;;;;;26.05;14.50;;;;;;;;;;5135361;27;20023;-68
2021/03/03 10:23:12;;;;;;;16.17;11.38;;;;;;;;;;5135410;27;20023;-67
2021/03/03 10:25:38;;;;;;;23.75;15.18;;;;;;;;;;5135590;27;20023;-67
2021/03/03 10:28:13;;;;;;;22.38;12.60;;;;;;;;;;5135446;27;20050;-67
2021/03/03 10:30:40;;;;;;;16.42;10.77;;;;;;;;;;5128764;27;20015;-68
2021/03/03 10:33:07;;;;;;;21.52;12.93;;;;;;;;;;5117365;27;20023;-70
2021/03/03 10:35:45;;;;;;;17.35;12.05;;;;;;;;;;5116832;27;20031;-70
2021/03/03 10:38:12;;;;;;;21.85;13.43;;;;;;;;;;5134270;27;20084;-69
2021/03/03 10:40:41;;;;;;;21.15;12.38;;;;;;;;;;5135122;27;20019;-67
2021/03/03 10:43:10;;;;;;;22.48;14.90;;;;;;;;;;5116841;27;20015;-72
2021/03/03 10:45:36;;;;;;;15.98;12.70;;;;;;;;;;5110302;28;20110;-71
2021/03/03 10:48:04;;;;;;;18.50;12.23;;;;;;;;;;5103525;27;20359;-70
2021/03/03 10:50:31;;;;;;;18.40;11.93;;;;;;;;;;5124677;27;20513;-72
2021/03/03 10:53:13;;;;;;;19.33;11.65;;;;;;;;;;5103923;27;20132;-76
2021/03/03 10:55:46;;;;;;;15.07;11.45;;;;;;;;;;5106076;27;20106;-72
2021/03/03 10:58:13;;;;;;;17.35;10.75;;;;;;;;;;5123895;27;20448;-68
2021/03/03 11:00:54;;;;;;;15.73;11.60;;;;;;;;;;5122937;27;20020;-71
2021/03/03 11:03:20;;;;;;;14.90;10.63;;;;;;;;;;5106167;27;20094;-69
2021/03/03 11:05:50;;;;;;;17.67;12.55;;;;;;;;;;5122211;27;20019;-74
2021/03/03 11:08:17;;;;;;;16.02;10.02;;;;;;;;;;5105180;27;20019;-69
2021/03/03 11:10:43;;;;;;;15.52;11.35;;;;;;;;;;5122974;27;20381;-72
2021/03/03 11:13:09;;;;;;;16.55;10.55;;;;;;;;;;5122419;27;20027;-69
2021/03/03 11:15:35;;;;;;;18.58;10.85;;;;;;;;;;5123715;27;20677;-70
2021/03/03 11:18:01;;;;;;;18.63;11.23;;;;;;;;;;5122856;27;20055;-68
2021/03/03 11:20:28;;;;;;;18.42;11.27;;;;;;;;;;5122021;27;20024;-70
2021/03/03 11:22:54;;;;;;;14.93;10.32;;;;;;;;;;5103491;28;20018;-71
2021/03/03 11:25:20;;;;;;;16.40;10.25;;;;;;;;;;5124258;28;20034;-70
2021/03/03 11:27:46;;;;;;;17.80;11.43;;;;;;;;;;5108498;28;20171;-66
2021/03/03 11:30:12;;;;;;;15.88;10.65;;;;;;;;;;5125254;28;20019;-68
2021/03/03 11:32:38;;;;;;;15.48;9.85;;;;;;;;;;5114124;28;20325;-68
2021/03/03 11:35:05;;;;;;;18.00;10.77;;;;;;;;;;5114166;28;20090;-71
2021/03/03 11:37:31;;;;;;;16.77;10.27;;;;;;;;;;5113704;28;20016;-70
2021/03/03 11:39:57;;;;;;;19.45;10.27;;;;;;;;;;5099953;28;20114;-71
2021/03/03 11:42:23;;;;;;;16.48;11.23;;;;;;;;;;5115874;28;20103;-70
2021/03/03 11:44:49;;;;;;;16.65;11.18;;;;;;;;;;5134202;28;20026;-70
2021/03/03 11:47:15;;;;;;;13.35;9.95;;;;;;;;;;5134203;28;20028;-71
2021/03/03 11:49:41;;;;;;;16.65;10.82;;;;;;;;;;5134377;28;20444;-71
2021/03/03 11:52:07;;;;;;;16.02;10.60;;;;;;;;;;5134211;28;20109;-73
2021/03/03 11:54:33;;;;;;;18.55;11.40;;;;;;;;;;5133889;28;20404;-71
2021/03/03 11:56:59;;;;;;;15.07;11.52;;;;;;;;;;5123613;28;20026;-70
2021/03/03 11:59:25;;;;;;;17.00;9.98;;;;;;;;;;5095072;28;20027;-70
2021/03/03 12:01:53;;;;;;;12.65;9.32;;;;;;;;;;5095411;28;20072;-72
2021/03/03 12:04:19;;;;;;;19.13;11.40;;;;;;;;;;5113454;28;20047;-71
2021/03/03 12:06:45;;;;;;;27.30;12.63;;;;;;;;;;5098258;28;20030;-69
2021/03/03 12:09:11;;;;;;;19.20;13.00;;;;;;;;;;5117714;28;20494;-70
2021/03/03 12:11:37;;;;;;;14.55;11.00;;;;;;;;;;5116219;27;20732;-70
2021/03/03 12:14:04;;;;;;;16.13;10.57;;;;;;;;;;5138215;27;20031;-72
2021/03/03 12:16:30;;;;;;;14.70;10.15;;;;;;;;;;5119813;27;20026;-70
2021/03/03 12:18:56;;;;;;;17.05;8.45;;;;;;;;;;5119468;27;20027;-71
2021/03/03 12:21:22;;;;;;;12.75;10.02;;;;;;;;;;5101737;28;20020;-71
2021/03/03 12:23:48;;;;;;;13.93;9.35;;;;;;;;;;5117089;28;20024;-69
2021/03/03 12:26:14;;;;;;;18.25;8.52;;;;;;;;;;5098810;28;20030;-70
2021/03/03 12:28:40;;;;;;;24.27;11.15;;;;;;;;;;5099054;28;20061;-70
2021/03/03 12:31:07;;;;;;;25.65;14.27;;;;;;;;;;5117016;28;20115;-70
2021/03/03 12:33:33;;;;;;;11.95;7.70;;;;;;;;;;5098480;28;20016;-71
2021/03/03 12:35:59;;;;;;;15.82;10.10;;;;;;;;;;5098920;28;20027;-70
2021/03/03 12:38:26;;;;;;;13.27;8.45;;;;;;;;;;5117162;28;20434;-69
2021/03/03 12:40:52;;;;;;;13.00;9.18;;;;;;;;;;5116728;28;20043;-69
2021/03/03 12:43:18;;;;;;;15.82;9.50;;;;;;;;;;5128445;27;20050;-71
2021/03/03 12:45:44;;;;;;;11.77;9.68;;;;;;;;;;5137514;27;20030;-70
2021/03/03 12:48:11;;;;;;;12.02;8.98;;;;;;;;;;5136946;27;20098;-69
2021/03/03 12:50:37;;;;;;;18.97;9.93;;;;;;;;;;5137516;27;20021;-66
2021/03/03 12:53:03;;;;;;;12.68;9.32;;;;;;;;;;5110508;28;20157;-70
2021/03/03 12:55:29;;;;;;;12.55;8.88;;;;;;;;;;5123799;27;20029;-68
2021/03/03 12:57:55;;;;;;;15.27;10.93;;;;;;;;;;5125060;27;20039;-67
2021/03/03 13:00:24;;;;;;;8.73;7.30;;;;;;;;;;5123823;27;20024;-69
2021/03/03 13:02:51;;;;;;;9.75;7.75;;;;;;;;;;5106659;27;20139;-69
2021/03/03 13:05:23;;;;;;;12.33;8.33;;;;;;;;;;5124591;27;20023;-69
2021/03/03 13:07:49;;;;;;;16.75;10.25;;;;;;;;;;5130039;27;20519;-68
2021/03/03 13:10:15;;;;;;;16.05;10.05;;;;;;;;;;5137070;27;20023;-66
2021/03/03 13:12:42;;;;;;;17.60;9.98;;;;;;;;;;5136091;27;20023;-69
2021/03/03 13:15:08;;;;;;;13.32;8.48;;;;;;;;;;5136748;27;20042;-68
2021/03/03 13:17:35;;;;;;;11.50;7.88;;;;;;;;;;5135494;27;20019;-68
2021/03/03 13:20:01;;;;;;;12.20;9.38;;;;;;;;;;5136981;27;20097;-66
2021/03/03 13:22:27;;;;;;;20.15;12.27;;;;;;;;;;5121004;27;20015;-68
2021/03/03 13:24:53;;;;;;;15.05;10.80;;;;;;;;;;5115857;28;20031;-68
2021/03/03 13:27:19;;;;;;;20.70;11.65;;;;;;;;;;5098143;28;20012;-68
2021/03/03 13:29:47;;;;;;;15.88;9.63;;;;;;;;;;5116018;28;20019;-69
2021/03/03 13:32:13;;;;;;;16.38;9.68;;;;;;;;;;5128883;27;20040;-68
2021/03/03 13:34:40;;;;;;;11.55;8.05;;;;;;;;;;5136923;27;20038;-69
2021/03/03 13:37:07;;;;;;;17.33;11.00;;;;;;;;;;5116545;27;20016;-68
2021/03/03 13:39:36;;;;;;;11.88;8.27;;;;;;;;;;5135638;27;20015;-69
2021/03/03 13:42:02;;;;;;;;;;;;;;;;;;5132817;27;20035;-68
2021/03/03 13:44:28;;;;;;;13.47;7.37;;;;;;;;;;5115325;28;19908;-71
2021/03/03 13:46:54;;;;;;;12.48;8.27;;;;;;;;;;5098559;28;20372;-70
2021/03/03 13:49:20;;;;;;;14.88;8.52;;;;;;;;;;5130972;27;20027;-70
2021/03/03 13:51:47;;;;;;;14.70;10.77;;;;;;;;;;5136520;27;20023;-70
2021/03/03 13:54:14;;;;;;;16.55;9.65;;;;;;;;;;5117881;27;20102;-70
2021/03/03 13:56:40;;;;;;;13.77;7.50;;;;;;;;;;5128927;27;20032;-69
2021/03/03 13:59:06;;;;;;;14.47;8.80;;;;;;;;;;5126924;27;20019;-71
2021/03/03 14:01:33;;;;;;;12.32;8.75;;;;;;;;;;5114553;27;20047;-66
2021/03/03 14:03:59;;;;;;;11.85;7.95;;;;;;;;;;5134643;27;20116;-69
2021/03/03 14:06:25;;;;;;;11.75;7.32;;;;;;;;;;5113091;27;20375;-68
2021/03/03 14:08:51;;;;;;;12.73;7.97;;;;;;;;;;5110554;27;20106;-68
2021/03/03 14:11:18;;;;;;;10.00;6.40;;;;;;;;;;5135302;27;20015;-70
2021/03/03 14:13:47;;;;;;;8.52;6.68;;;;;;;;;;5118358;27;20024;-68
2021/03/03 14:16:15;;;;;;;12.50;7.68;;;;;;;;;;5116854;27;20023;-68
2021/03/03 14:18:41;;;;;;;18.80;9.63;;;;;;;;;;5125125;27;20023;-69